Time;durP1;ratioP1;P1;durP2;ratioP2;P2;SDS_P1;SDS_P2;PMS_P1;PMS_P2;Temp;Humidity;BMP_temperature;BMP_pressure;BME280_temperature;BME280_humidity;BME280_pressure;Samples;Min_cycle;Max_cycle;Signal;HPM_P1;HPM_P2
2021/05/30 00:01:16;;;;;;;36.92;23.30;;;8.70;99.90;;;;;;4164451;28;20127;-73
2021/05/30 00:03:18;;;;;;;33.90;21.77;;;8.70;99.90;;;;;;4158094;28;20034;-73
2021/05/30 00:05:19;;;;;;;34.70;21.67;;;8.60;99.90;;;;;;4177111;28;20037;-73
2021/05/30 00:07:22;;;;;;;44.65;21.95;;;8.50;99.90;;;;;;4163841;28;20504;-73
2021/05/30 00:09:23;;;;;;;30.30;20.90;;;8.50;99.90;;;;;;4161404;28;20030;-73
2021/05/30 00:11:23;;;;;;;32.97;20.73;;;8.50;99.90;;;;;;4164357;28;20029;-73
2021/05/30 00:13:24;;;;;;;38.28;21.70;;;8.40;99.90;;;;;;4162376;28;20099;-74
2021/05/30 00:15:24;;;;;;;36.53;21.23;;;8.40;99.90;;;;;;4164379;28;20080;-73
2021/05/30 00:17:25;;;;;;;40.22;24.05;;;8.40;99.90;;;;;;4164216;28;20037;-73
2021/05/30 00:19:26;;;;;;;36.22;20.85;;;8.30;99.90;;;;;;4162594;28;20397;-73
2021/05/30 00:21:27;;;;;;;35.17;21.73;;;8.30;99.90;;;;;;4163298;28;20021;-73
2021/05/30 00:23:28;;;;;;;34.80;21.17;;;8.30;99.90;;;;;;4161337;28;20075;-73
2021/05/30 00:25:28;;;;;;;39.65;20.83;;;8.20;99.90;;;;;;4163163;28;20022;-73
2021/05/30 00:27:29;;;;;;;30.83;20.70;;;8.20;99.90;;;;;;4162001;28;20413;-73
2021/05/30 00:29:30;;;;;;;32.17;21.33;;;8.10;99.90;;;;;;4162488;28;20028;-73
2021/05/30 00:31:30;;;;;;;33.88;20.58;;;8.10;99.90;;;;;;4162654;28;20404;-73
2021/05/30 00:33:31;;;;;;;27.00;18.40;;;8.10;99.90;;;;;;4163847;28;20029;-73
2021/05/30 00:35:32;;;;;;;33.13;21.33;;;8.00;99.90;;;;;;4163142;28;20389;-73
2021/05/30 00:37:32;;;;;;;37.03;22.60;;;8.00;99.90;;;;;;4162945;28;20080;-73
2021/05/30 00:39:33;;;;;;;32.58;20.30;;;7.80;99.90;;;;;;4162809;28;20026;-73
2021/05/30 00:41:33;;;;;;;36.15;21.20;;;7.80;99.90;;;;;;4162955;28;20029;-73
2021/05/30 00:43:48;;;;;;;35.70;21.17;;;7.80;99.90;;;;;;4162692;28;20030;-73
2021/05/30 00:45:49;;;;;;;38.78;20.88;;;7.70;99.90;;;;;;4162302;28;20034;-73
2021/05/30 00:47:50;;;;;;;31.73;20.55;;;7.70;99.90;;;;;;4162785;28;20091;-74
2021/05/30 00:49:50;;;;;;;34.20;20.17;;;7.70;99.90;;;;;;4163331;28;20029;-73
2021/05/30 00:51:52;;;;;;;37.90;20.52;;;7.70;99.90;;;;;;4161260;28;20369;-73
2021/05/30 00:53:53;;;;;;;40.72;21.45;;;7.70;99.90;;;;;;4162320;28;20029;-73
2021/05/30 00:55:54;;;;;;;34.30;21.88;;;7.60;99.90;;;;;;4161186;28;20037;-73
2021/05/30 00:57:54;;;;;;;35.72;21.65;;;7.60;99.90;;;;;;4161290;28;20110;-73
2021/05/30 00:59:55;;;;;;;34.42;21.33;;;7.50;99.90;;;;;;4162369;28;20036;-73
2021/05/30 01:01:55;;;;;;;33.83;21.88;;;7.50;99.90;;;;;;4161073;28;20117;-73
2021/05/30 01:03:56;;;;;;;35.70;21.08;;;7.50;99.90;;;;;;4160565;28;20120;-73
2021/05/30 01:05:57;;;;;;;42.78;20.40;;;7.40;99.90;;;;;;4162785;28;20075;-73
2021/05/30 01:07:58;;;;;;;36.10;21.17;;;7.40;99.90;;;;;;4163392;28;20040;-73
2021/05/30 01:10:16;;;;;;;37.65;21.27;;;7.40;99.90;;;;;;4163416;28;20065;-73
2021/05/30 01:12:17;;;;;;;35.78;21.20;;;7.30;99.90;;;;;;4161808;28;20025;-73
2021/05/30 01:14:19;;;;;;;37.50;22.70;;;7.30;99.90;;;;;;4163577;28;20026;-73
2021/05/30 01:16:22;;;;;;;34.63;20.67;;;7.30;99.90;;;;;;4161645;28;20447;-71
2021/05/30 01:18:24;;;;;;;37.67;21.92;;;7.30;99.90;;;;;;4163458;28;20029;-73
2021/05/30 01:20:26;;;;;;;39.35;21.92;;;7.20;99.90;;;;;;4161680;28;20120;-74
2021/05/30 01:22:27;;;;;;;35.45;22.23;;;7.20;99.90;;;;;;4163251;28;20411;-74
2021/05/30 01:24:28;;;;;;;38.00;22.08;;;7.10;99.90;;;;;;4163642;28;20034;-73
2021/05/30 01:26:29;;;;;;;39.60;21.73;;;7.10;99.90;;;;;;4163245;28;20087;-74
2021/05/30 01:28:29;;;;;;;39.28;22.92;;;7.10;99.90;;;;;;4162805;28;20369;-74
2021/05/30 01:30:30;;;;;;;42.80;20.77;;;7.10;99.90;;;;;;4161787;28;20033;-74
2021/05/30 01:32:31;;;;;;;39.97;22.45;;;7.10;99.90;;;;;;4163197;28;20025;-73
2021/05/30 01:34:33;;;;;;;39.75;22.73;;;7.00;99.90;;;;;;4161809;28;20136;-73
2021/05/30 01:36:34;;;;;;;39.55;23.30;;;7.00;99.90;;;;;;4162162;28;20103;-73
2021/05/30 01:38:35;;;;;;;43.50;22.15;;;6.90;99.90;;;;;;4161880;28;20090;-74
2021/05/30 01:40:36;;;;;;;39.95;21.27;;;6.90;99.90;;;;;;4149163;28;20030;-74
2021/05/30 01:42:37;;;;;;;40.17;21.35;;;6.90;99.90;;;;;;4161909;28;20574;-74
2021/05/30 01:44:38;;;;;;;41.35;22.20;;;6.90;99.90;;;;;;4162733;28;20022;-73
2021/05/30 01:46:39;;;;;;;45.30;21.38;;;6.90;99.90;;;;;;4161850;28;20029;-74
2021/05/30 01:48:39;;;;;;;40.50;22.05;;;6.90;99.90;;;;;;4163197;28;20026;-74
2021/05/30 01:50:46;;;;;;;36.45;22.35;;;6.90;99.90;;;;;;4162725;28;20029;-74
2021/05/30 01:52:48;;;;;;;37.75;22.65;;;6.90;99.90;;;;;;4161963;28;20053;-74
2021/05/30 01:54:51;;;;;;;42.95;22.90;;;6.80;99.90;;;;;;4163048;28;20488;-73
2021/05/30 01:56:58;;;;;;;41.88;21.58;;;6.80;99.90;;;;;;4162488;28;20085;-73
2021/05/30 01:59:01;;;;;;;39.90;21.98;;;6.80;99.90;;;;;;4162634;28;20041;-73
2021/05/30 02:01:01;;;;;;;44.28;21.00;;;6.70;99.90;;;;;;4161142;28;20038;-73
2021/05/30 02:03:03;;;;;;;37.35;21.65;;;6.70;99.90;;;;;;4162813;28;20148;-73
2021/05/30 02:05:05;;;;;;;37.88;20.48;;;6.70;99.90;;;;;;4161537;28;20053;-73
2021/05/30 02:07:07;;;;;;;37.97;20.55;;;6.60;99.90;;;;;;4161319;28;20045;-73
2021/05/30 02:09:08;;;;;;;41.35;22.92;;;6.50;99.90;;;;;;4162915;28;20030;-73
2021/05/30 02:11:10;;;;;;;37.85;21.15;;;6.50;99.90;;;;;;4161477;28;20080;-73
2021/05/30 02:13:11;;;;;;;42.97;22.77;;;6.50;99.90;;;;;;4162681;28;20025;-73
2021/05/30 02:15:12;;;;;;;37.47;21.90;;;6.50;99.90;;;;;;4162937;28;20049;-73
2021/05/30 02:17:13;;;;;;;45.35;22.98;;;6.40;99.90;;;;;;4163045;28;20554;-73
2021/05/30 02:19:13;;;;;;;45.20;23.88;;;6.40;99.90;;;;;;4162595;28;20029;-73
2021/05/30 02:21:14;;;;;;;40.75;21.98;;;6.40;99.90;;;;;;4162606;28;20129;-73
2021/05/30 02:23:15;;;;;;;40.17;21.40;;;6.30;99.90;;;;;;4162888;28;20038;-73
2021/05/30 02:25:16;;;;;;;35.13;21.63;;;6.30;99.90;;;;;;4161366;28;20049;-73
2021/05/30 02:27:17;;;;;;;43.80;22.88;;;6.30;99.90;;;;;;4162797;28;20106;-73
2021/05/30 02:29:37;;;;;;;48.28;23.42;;;6.30;99.90;;;;;;4162498;28;20376;-73
2021/05/30 02:31:37;;;;;;;39.65;21.85;;;6.20;99.90;;;;;;4161995;28;20026;-73
2021/05/30 02:33:38;;;;;;;40.67;21.55;;;6.20;99.90;;;;;;4161120;28;20362;-73
2021/05/30 02:35:39;;;;;;;45.97;21.60;;;6.10;99.90;;;;;;4162367;28;20022;-74
2021/05/30 02:37:39;;;;;;;47.92;22.08;;;6.00;99.90;;;;;;4161087;28;20026;-74
2021/05/30 02:39:40;;;;;;;37.90;20.45;;;6.00;99.90;;;;;;4162636;28;20057;-74
2021/05/30 02:41:41;;;;;;;50.47;22.45;;;6.00;99.90;;;;;;4162018;28;20033;-73
2021/05/30 02:43:42;;;;;;;50.03;22.52;;;5.90;99.90;;;;;;4162673;28;20381;-74
2021/05/30 02:45:42;;;;;;;49.63;23.10;;;5.90;99.90;;;;;;4162618;28;20032;-74
2021/05/30 02:47:45;;;;;;;46.53;22.08;;;5.80;99.90;;;;;;4164449;28;20108;-74
2021/05/30 02:49:45;;;;;;;44.53;21.95;;;5.80;99.90;;;;;;4164287;28;20038;-74
2021/05/30 02:51:46;;;;;;;48.67;23.60;;;5.80;99.90;;;;;;4165344;28;20495;-74
2021/05/30 02:53:46;;;;;;;48.10;22.65;;;5.90;99.90;;;;;;4165189;28;20030;-74
2021/05/30 02:55:47;;;;;;;52.58;23.35;;;6.00;99.90;;;;;;4165462;28;20120;-73
2021/05/30 02:57:47;;;;;;;43.35;24.50;;;6.00;99.90;;;;;;4164465;28;20512;-73
2021/05/30 02:59:48;;;;;;;47.47;23.42;;;6.00;99.90;;;;;;4164380;28;20029;-73
2021/05/30 03:01:49;;;;;;;51.25;24.67;;;5.90;99.90;;;;;;4165425;28;20033;-74
2021/05/30 03:03:50;;;;;;;51.08;23.67;;;5.90;99.90;;;;;;4163872;28;20531;-73
2021/05/30 03:05:51;;;;;;;49.28;25.17;;;5.90;99.90;;;;;;4163686;28;20064;-73
2021/05/30 03:07:51;;;;;;;48.35;23.83;;;5.90;99.90;;;;;;4165246;28;20033;-73
2021/05/30 03:09:52;;;;;;;51.40;24.67;;;6.00;99.90;;;;;;4164844;28;20045;-73
2021/05/30 03:11:53;;;;;;;46.53;22.40;;;6.00;99.90;;;;;;4165184;28;20044;-73
2021/05/30 03:13:54;;;;;;;46.97;24.20;;;5.90;99.90;;;;;;4165286;28;20038;-73
2021/05/30 03:15:54;;;;;;;57.28;26.30;;;5.90;99.90;;;;;;4165327;28;20045;-73
2021/05/30 03:17:55;;;;;;;54.58;26.05;;;5.90;99.90;;;;;;4165260;28;20070;-73
2021/05/30 03:19:56;;;;;;;48.65;23.13;;;5.90;99.90;;;;;;4165262;28;20364;-73
2021/05/30 03:21:56;;;;;;;57.63;24.63;;;5.90;99.90;;;;;;4159206;28;20365;-73
2021/05/30 03:23:57;;;;;;;52.22;23.60;;;5.80;99.90;;;;;;4156754;28;20049;-73
2021/05/30 03:25:58;;;;;;;54.72;22.42;;;5.90;99.90;;;;;;4165165;28;20435;-73
2021/05/30 03:27:58;;;;;;;52.13;24.05;;;5.90;99.90;;;;;;4165049;28;20029;-73
2021/05/30 03:29:59;;;;;;;48.30;23.77;;;5.90;99.90;;;;;;4164501;28;20037;-73
2021/05/30 03:31:59;;;;;;;55.72;25.30;;;5.90;99.90;;;;;;4164810;28;20038;-73
2021/05/30 03:34:00;;;;;;;53.47;24.83;;;5.90;99.90;;;;;;4165122;28;20047;-73
2021/05/30 03:36:04;;;;;;;50.80;24.83;;;5.90;99.90;;;;;;4163407;28;20111;-73
2021/05/30 03:38:08;;;;;;;55.15;24.77;;;5.90;99.90;;;;;;4164121;28;20095;-73
2021/05/30 03:40:30;;;;;;;60.83;23.95;;;5.90;99.90;;;;;;4164924;28;20046;-73
2021/05/30 03:42:35;;;;;;;59.83;24.63;;;5.90;99.90;;;;;;4164923;28;20124;-73
2021/05/30 03:44:36;;;;;;;61.97;26.15;;;6.00;99.90;;;;;;4164919;28;20033;-73
2021/05/30 03:46:37;;;;;;;50.33;25.05;;;6.10;99.90;;;;;;4164757;28;20075;-73
2021/05/30 03:48:38;;;;;;;54.15;24.58;;;6.00;99.90;;;;;;4163217;28;20034;-73
2021/05/30 03:50:39;;;;;;;53.88;25.55;;;6.00;99.90;;;;;;4165052;28;20440;-74
2021/05/30 03:52:39;;;;;;;56.95;27.25;;;6.00;99.90;;;;;;4162739;28;20381;-74
2021/05/30 03:54:40;;;;;;;55.88;23.25;;;6.00;99.90;;;;;;4164947;28;20044;-74
2021/05/30 03:56:41;;;;;;;57.95;26.20;;;6.00;99.90;;;;;;4162869;28;20034;-73
2021/05/30 03:58:42;;;;;;;63.67;25.98;;;6.00;99.90;;;;;;4163306;28;20050;-73
2021/05/30 04:00:43;;;;;;;59.78;27.48;;;6.00;99.90;;;;;;4162899;28;20041;-73
2021/05/30 04:02:44;;;;;;;57.30;27.38;;;6.00;99.90;;;;;;4164460;28;20025;-73
2021/05/30 04:04:45;;;;;;;63.15;24.98;;;6.00;99.90;;;;;;4164525;28;20076;-73
2021/05/30 04:06:46;;;;;;;64.43;25.75;;;6.10;99.90;;;;;;4164314;28;20045;-73
2021/05/30 04:08:47;;;;;;;57.13;24.85;;;6.10;99.90;;;;;;4163294;28;20045;-75
2021/05/30 04:10:48;;;;;;;58.80;26.52;;;6.20;99.90;;;;;;4163301;28;20575;-74
2021/05/30 04:12:48;;;;;;;58.67;27.55;;;6.20;99.90;;;;;;4164632;28;20105;-73
2021/05/30 04:14:49;;;;;;;64.03;26.00;;;6.20;99.90;;;;;;4163033;28;20115;-73
2021/05/30 04:16:50;;;;;;;63.60;26.42;;;6.20;99.90;;;;;;4164329;28;20171;-73
2021/05/30 04:18:50;;;;;;;63.55;27.33;;;6.30;99.90;;;;;;4164521;28;20126;-73
2021/05/30 04:20:51;;;;;;;58.80;26.92;;;6.30;99.90;;;;;;4164263;28;20034;-73
2021/05/30 04:22:52;;;;;;;60.65;26.50;;;6.30;99.90;;;;;;4164222;28;20051;-73
2021/05/30 04:24:52;;;;;;;65.10;28.35;;;6.40;99.90;;;;;;4164213;28;20041;-73
2021/05/30 04:26:53;;;;;;;63.20;27.60;;;6.40;99.90;;;;;;4163748;28;20033;-73
2021/05/30 04:28:54;;;;;;;62.15;28.80;;;6.50;99.90;;;;;;4164242;28;20488;-74
2021/05/30 04:30:54;;;;;;;59.95;27.42;;;6.60;99.90;;;;;;4164255;28;20029;-73
2021/05/30 04:32:55;;;;;;;66.50;29.15;;;6.60;99.90;;;;;;4150533;28;20069;-73
2021/05/30 04:34:55;;;;;;;54.40;27.15;;;6.70;99.90;;;;;;4161915;28;20048;-73
2021/05/30 04:36:56;;;;;;;65.25;29.10;;;6.70;99.90;;;;;;4163594;28;20025;-73
2021/05/30 04:38:56;;;;;;;62.72;27.85;;;6.80;99.90;;;;;;4164105;28;20037;-73
2021/05/30 04:41:00;;;;;;;57.28;26.80;;;6.80;99.90;;;;;;4163646;28;20133;-73
2021/05/30 04:43:01;;;;;;;54.95;24.75;;;6.80;99.90;;;;;;4164357;28;20112;-74
2021/05/30 04:45:02;;;;;;;54.67;27.48;;;7.00;99.90;;;;;;4163622;28;20033;-73
2021/05/30 04:47:03;;;;;;;56.53;26.92;;;7.10;99.90;;;;;;4163520;28;20037;-73
2021/05/30 04:49:04;;;;;;;61.22;28.58;;;7.20;99.90;;;;;;4163570;28;20378;-74
2021/05/30 04:51:05;;;;;;;58.33;27.63;;;7.30;99.90;;;;;;4164044;28;20266;-73
2021/05/30 04:53:06;;;;;;;54.42;26.45;;;7.30;99.90;;;;;;4162167;28;20057;-73
2021/05/30 04:55:09;;;;;;;58.17;26.65;;;7.30;99.90;;;;;;4162318;28;20499;-73
2021/05/30 04:57:11;;;;;;;57.15;26.98;;;7.40;99.90;;;;;;4163131;28;20033;-73
2021/05/30 04:59:11;;;;;;;53.13;26.27;;;7.40;99.90;;;;;;4160844;28;20088;-73
2021/05/30 05:01:12;;;;;;;57.78;28.13;;;7.40;99.90;;;;;;4161589;28;20034;-73
2021/05/30 05:03:13;;;;;;;60.15;28.58;;;7.50;99.90;;;;;;4162914;28;20033;-74
2021/05/30 05:05:14;;;;;;;56.50;28.80;;;7.50;99.90;;;;;;4163749;28;20086;-73
2021/05/30 05:07:15;;;;;;;54.78;27.23;;;7.60;99.90;;;;;;4162977;28;20049;-74
2021/05/30 05:09:16;;;;;;;54.13;28.73;;;7.60;99.90;;;;;;4161933;28;20041;-73
2021/05/30 05:11:17;;;;;;;59.72;28.85;;;7.70;99.90;;;;;;4162729;28;20030;-74
2021/05/30 05:13:18;;;;;;;52.05;26.67;;;7.70;99.90;;;;;;4162891;28;20025;-74
2021/05/30 05:15:19;;;;;;;49.40;26.17;;;7.70;99.90;;;;;;4163524;28;20050;-73
2021/05/30 05:17:19;;;;;;;55.05;28.02;;;7.80;99.90;;;;;;4163634;28;20511;-73
2021/05/30 05:19:20;;;;;;;52.03;26.20;;;7.80;99.90;;;;;;4163200;28;20406;-73
2021/05/30 05:21:21;;;;;;;57.30;28.85;;;7.90;99.90;;;;;;4163234;28;20116;-74
2021/05/30 05:23:23;;;;;;;54.00;26.73;;;7.90;99.90;;;;;;4163530;28;20030;-74
2021/05/30 05:25:23;;;;;;;46.63;27.08;;;7.90;99.90;;;;;;4163207;28;20026;-73
2021/05/30 05:27:24;;;;;;;50.97;28.30;;;8.00;99.90;;;;;;4161883;28;20072;-74
2021/05/30 05:29:24;;;;;;;48.55;26.63;;;8.00;99.90;;;;;;4163501;28;20542;-74
2021/05/30 05:31:25;;;;;;;50.28;27.48;;;8.00;99.90;;;;;;4163018;28;20132;-74
2021/05/30 05:33:26;;;;;;;47.15;27.70;;;8.10;99.90;;;;;;4161683;28;20491;-73
2021/05/30 05:35:27;;;;;;;45.10;26.33;;;8.20;99.90;;;;;;4162905;28;20387;-73
2021/05/30 05:37:29;;;;;;;50.17;29.20;;;8.20;99.90;;;;;;4162991;28;20606;-73
2021/05/30 05:39:31;;;;;;;55.13;28.25;;;8.30;99.90;;;;;;4163313;28;20033;-73
2021/05/30 05:41:32;;;;;;;50.28;26.90;;;8.30;99.90;;;;;;4162995;28;20061;-74
2021/05/30 05:43:32;;;;;;;48.03;28.50;;;8.40;99.90;;;;;;4162871;28;20024;-73
2021/05/30 05:45:34;;;;;;;52.17;28.40;;;8.50;99.90;;;;;;4162535;28;20033;-73
2021/05/30 05:47:35;;;;;;;43.97;27.15;;;8.60;99.90;;;;;;4162336;28;20028;-74
2021/05/30 05:49:35;;;;;;;44.13;27.00;;;8.70;99.90;;;;;;4162854;28;20029;-74
2021/05/30 05:51:36;;;;;;;46.00;26.65;;;8.70;99.90;;;;;;4163058;28;20022;-74
2021/05/30 05:53:36;;;;;;;40.53;25.27;;;8.80;99.90;;;;;;4162399;28;20033;-73
2021/05/30 05:55:37;;;;;;;42.58;28.15;;;8.80;99.90;;;;;;4162939;28;20026;-74
2021/05/30 05:57:39;;;;;;;43.25;26.65;;;8.90;99.90;;;;;;4162747;28;20073;-74
2021/05/30 05:59:40;;;;;;;45.90;27.77;;;8.90;99.90;;;;;;4162753;28;20033;-74
2021/05/30 06:01:40;;;;;;;35.45;25.73;;;9.10;99.90;;;;;;4162137;28;20049;-74
2021/05/30 06:03:41;;;;;;;38.88;25.77;;;9.10;99.90;;;;;;4162526;28;20040;-74
2021/05/30 06:05:42;;;;;;;41.38;26.30;;;9.20;99.90;;;;;;4161377;28;20120;-71
2021/05/30 06:07:43;;;;;;;44.70;26.63;;;9.20;99.90;;;;;;4162464;28;20033;-72
2021/05/30 06:09:43;;;;;;;40.92;26.30;;;9.30;99.90;;;;;;4161689;28;20030;-71
2021/05/30 06:11:45;;;;;;;37.72;26.33;;;9.40;99.90;;;;;;4160996;28;20152;-71
2021/05/30 06:13:45;;;;;;;40.20;24.98;;;9.40;99.90;;;;;;4162916;28;20130;-70
2021/05/30 06:15:46;;;;;;;40.30;26.27;;;9.50;99.90;;;;;;4160897;28;20412;-70
2021/05/30 06:18:11;;;;;;;39.08;25.23;;;9.60;99.90;;;;;;4162365;28;20057;-70
2021/05/30 06:20:12;;;;;;;38.72;26.50;;;9.70;99.90;;;;;;4160233;28;20048;-70
2021/05/30 06:22:16;;;;;;;41.15;24.58;;;9.70;99.90;;;;;;4161042;28;20113;-70
2021/05/30 06:24:17;;;;;;;43.63;26.48;;;9.80;99.90;;;;;;4164034;28;20533;-71
2021/05/30 06:26:17;;;;;;;34.33;24.30;;;9.80;99.90;;;;;;4165821;28;20083;-71
2021/05/30 06:28:18;;;;;;;37.53;25.15;;;9.90;99.90;;;;;;4165407;28;20054;-72
2021/05/30 06:30:20;;;;;;;38.67;25.45;;;9.90;99.90;;;;;;4162845;28;20041;-72
2021/05/30 06:32:21;;;;;;;35.13;24.40;;;10.00;99.90;;;;;;4148070;28;20034;-71
2021/05/30 06:34:21;;;;;;;34.90;25.35;;;10.00;99.90;;;;;;4164150;28;20038;-71
2021/05/30 06:36:22;;;;;;;37.80;24.02;;;10.10;99.90;;;;;;4164057;28;20030;-72
2021/05/30 06:38:23;;;;;;;35.47;23.88;;;10.20;99.90;;;;;;4164982;28;20423;-71
2021/05/30 06:40:24;;;;;;;31.70;23.85;;;10.30;99.90;;;;;;4165080;28;20124;-71
2021/05/30 06:42:24;;;;;;;35.65;24.50;;;10.40;99.90;;;;;;4165208;28;20033;-71
2021/05/30 06:44:25;;;;;;;40.60;25.20;;;10.50;99.90;;;;;;4165194;28;20029;-72
2021/05/30 06:46:26;;;;;;;39.85;25.73;;;10.60;99.90;;;;;;4164200;28;20048;-73
2021/05/30 06:48:27;;;;;;;33.80;25.48;;;10.60;99.90;;;;;;4164501;28;20105;-72
2021/05/30 06:50:30;;;;;;;39.72;24.95;;;10.70;99.90;;;;;;4165026;28;20033;-71
2021/05/30 06:52:30;;;;;;;36.28;25.02;;;10.80;99.90;;;;;;4163598;28;20042;-72
2021/05/30 06:54:31;;;;;;;37.47;24.60;;;10.80;99.90;;;;;;4162333;28;20527;-71
2021/05/30 06:56:32;;;;;;;32.30;25.15;;;11.00;99.90;;;;;;4161843;28;20022;-72
2021/05/30 06:58:33;;;;;;;38.03;25.08;;;11.00;99.90;;;;;;4163049;28;20048;-71
2021/05/30 07:00:33;;;;;;;31.08;23.67;;;11.20;99.90;;;;;;4162207;28;20396;-72
2021/05/30 07:02:34;;;;;;;33.88;24.45;;;11.30;99.90;;;;;;4160513;28;20396;-71
2021/05/30 07:04:35;;;;;;;38.08;26.38;;;11.30;99.90;;;;;;4163760;28;20033;-72
2021/05/30 07:06:36;;;;;;;34.17;24.60;;;11.50;99.90;;;;;;4163411;28;20485;-74
2021/05/30 07:08:37;;;;;;;33.17;23.65;;;11.60;99.90;;;;;;4164060;28;20053;-71
2021/05/30 07:10:38;;;;;;;34.38;24.00;;;11.70;99.90;;;;;;4163018;28;20033;-72
2021/05/30 07:12:39;;;;;;;32.33;25.05;;;11.80;99.90;;;;;;4164780;28;20079;-72
2021/05/30 07:14:39;;;;;;;32.08;23.98;;;12.00;99.90;;;;;;4175125;28;20037;-71
2021/05/30 07:16:40;;;;;;;31.52;23.55;;;12.10;99.90;;;;;;4164682;28;20044;-72
2021/05/30 07:18:41;;;;;;;32.28;22.58;;;12.20;99.90;;;;;;4160727;28;20034;-73
2021/05/30 07:20:43;;;;;;;27.55;23.05;;;12.40;99.90;;;;;;4175558;28;20116;-71
2021/05/30 07:22:44;;;;;;;30.65;24.65;;;12.50;99.90;;;;;;4163256;28;20030;-71
2021/05/30 07:24:45;;;;;;;34.55;23.20;;;12.60;99.90;;;;;;4164597;28;20042;-71
2021/05/30 07:26:45;;;;;;;25.77;21.63;;;12.70;99.90;;;;;;4161583;28;20054;-73
2021/05/30 07:28:46;;;;;;;27.85;22.75;;;12.80;99.90;;;;;;4174176;28;20082;-72
2021/05/30 07:30:50;;;;;;;28.40;22.08;;;12.90;99.90;;;;;;4163153;28;20123;-71
2021/05/30 07:32:51;;;;;;;31.38;23.95;;;13.20;99.90;;;;;;4171398;28;20155;-71
2021/05/30 07:34:51;;;;;;;25.23;22.40;;;13.30;99.90;;;;;;4162252;28;20037;-73
2021/05/30 07:36:52;;;;;;;24.67;21.02;;;13.40;99.90;;;;;;4162675;28;20026;-70
2021/05/30 07:38:53;;;;;;;24.20;20.60;;;13.50;99.90;;;;;;4163187;28;20103;-72
2021/05/30 07:40:54;;;;;;;26.55;21.70;;;13.50;99.90;;;;;;4164143;28;20112;-70
2021/05/30 07:42:54;;;;;;;28.20;23.13;;;13.80;99.90;;;;;;4162193;28;20068;-70
2021/05/30 07:44:55;;;;;;;27.98;22.35;;;13.90;99.90;;;;;;4164114;28;20053;-70
2021/05/30 07:46:57;;;;;;;26.60;21.30;;;14.00;99.90;;;;;;4163492;28;20052;-71
2021/05/30 07:48:58;;;;;;;26.40;20.17;;;14.10;99.90;;;;;;4162668;28;20034;-70
2021/05/30 07:50:59;;;;;;;29.85;22.15;;;14.30;99.90;;;;;;4164034;28;20122;-71
2021/05/30 07:52:59;;;;;;;25.90;21.45;;;14.40;99.90;;;;;;4163639;28;20075;-70
2021/05/30 07:55:00;;;;;;;27.02;21.25;;;14.50;99.90;;;;;;4164329;28;20072;-69
2021/05/30 07:57:00;;;;;;;22.20;19.35;;;14.70;99.90;;;;;;4162603;28;20084;-70
2021/05/30 07:59:01;;;;;;;22.80;19.52;;;14.90;99.90;;;;;;4163840;28;20048;-71
2021/05/30 08:01:02;;;;;;;24.13;20.38;;;15.00;99.90;;;;;;4163902;28;20037;-70
2021/05/30 08:03:03;;;;;;;25.92;21.58;;;15.10;99.90;;;;;;4163631;28;20031;-70
2021/05/30 08:05:06;;;;;;;24.60;20.35;;;15.20;99.90;;;;;;4163370;28;20033;-71
2021/05/30 08:07:06;;;;;;;23.55;20.95;;;15.30;99.90;;;;;;4172602;28;20036;-71
2021/05/30 08:09:07;;;;;;;25.60;22.33;;;15.30;99.90;;;;;;4158476;28;20022;-71
2021/05/30 08:11:07;;;;;;;27.15;20.85;;;15.40;99.90;;;;;;4161757;28;20097;-71
2021/05/30 08:13:08;;;;;;;30.05;26.85;;;15.60;99.90;;;;;;4160849;28;20052;-69
2021/05/30 08:15:10;;;;;;;23.75;20.23;;;15.60;99.90;;;;;;4163279;28;20030;-69
2021/05/30 08:17:11;;;;;;;26.67;21.67;;;15.70;99.90;;;;;;4163921;28;20108;-69
2021/05/30 08:19:13;;;;;;;24.23;21.38;;;15.90;99.90;;;;;;4157362;28;20038;-70
2021/05/30 08:21:13;;;;;;;22.15;19.58;;;15.70;99.90;;;;;;4176491;28;20087;-73
2021/05/30 08:23:14;;;;;;;24.48;19.65;;;15.70;99.90;;;;;;4162764;28;20037;-68
2021/05/30 08:25:16;;;;;;;23.30;20.05;;;15.90;99.90;;;;;;4163996;28;20030;-69
2021/05/30 08:27:18;;;;;;;23.35;20.00;;;16.10;99.90;;;;;;4162188;28;20045;-70
2021/05/30 08:29:20;;;;;;;23.15;19.50;;;16.20;99.90;;;;;;4158506;28;20030;-69
2021/05/30 08:31:21;;;;;;;22.00;19.08;;;16.30;99.90;;;;;;4162371;28;20552;-69
2021/05/30 08:33:22;;;;;;;22.98;18.77;;;16.50;99.90;;;;;;4153896;28;20045;-71
2021/05/30 08:35:22;;;;;;;31.88;25.52;;;16.80;99.90;;;;;;4153799;28;20033;-69
2021/05/30 08:37:23;;;;;;;28.98;24.58;;;17.10;99.90;;;;;;4163130;28;20083;-70
2021/05/30 08:39:24;;;;;;;39.25;35.20;;;17.10;99.90;;;;;;4163599;28;20034;-69
2021/05/30 08:41:24;;;;;;;22.10;19.75;;;17.00;99.90;;;;;;4163876;28;20025;-70
2021/05/30 08:43:26;;;;;;;21.80;19.50;;;17.10;99.90;;;;;;4153647;28;20701;-70
2021/05/30 08:45:27;;;;;;;22.70;18.65;;;17.20;99.90;;;;;;4153380;28;20527;-70
2021/05/30 08:47:28;;;;;;;20.83;18.52;;;17.50;99.90;;;;;;4161696;28;20025;-70
2021/05/30 08:49:28;;;;;;;21.02;18.80;;;17.70;99.90;;;;;;4170834;28;20120;-70
2021/05/30 08:51:29;;;;;;;25.10;20.15;;;17.80;99.90;;;;;;4163815;28;20071;-70
2021/05/30 08:53:31;;;;;;;22.08;19.77;;;17.60;99.90;;;;;;4178594;28;20029;-70
2021/05/30 08:55:32;;;;;;;37.50;33.45;;;17.60;99.90;;;;;;4154522;28;20029;-70
2021/05/30 08:57:33;;;;;;;40.65;30.83;;;17.90;99.90;;;;;;4162893;28;20048;-70
2021/05/30 08:59:35;;;;;;;21.55;19.25;;;18.10;99.90;;;;;;4163362;28;20117;-70
2021/05/30 09:01:43;;;;;;;19.77;17.67;;;18.30;99.90;;;;;;4162924;28;20033;-70
2021/05/30 09:03:55;;;;;;;19.05;17.02;;;18.20;99.90;;;;;;4163078;28;20037;-70
2021/05/30 09:06:12;;;;;;;18.90;16.75;;;18.60;99.90;;;;;;4161065;28;20056;-71
2021/05/30 09:08:30;;;;;;;18.88;16.00;;;18.70;99.90;;;;;;4160352;28;20453;-70
2021/05/30 09:10:31;;;;;;;26.85;22.88;;;18.60;99.90;;;;;;4163287;28;20029;-70
2021/05/30 09:12:37;;;;;;;21.80;18.88;;;18.80;99.90;;;;;;4162981;28;20113;-70
2021/05/30 09:14:47;;;;;;;20.35;17.30;;;19.10;99.90;;;;;;4157379;28;20025;-70
2021/05/30 09:16:54;;;;;;;23.25;20.70;;;19.00;99.90;;;;;;4159935;28;20033;-70
2021/05/30 09:18:55;;;;;;;33.78;30.13;;;19.00;99.90;;;;;;4162576;28;20286;-70
2021/05/30 09:20:58;;;;;;;19.02;15.30;;;19.20;99.90;;;;;;4162375;28;20033;-70
2021/05/30 09:22:59;;;;;;;16.67;14.95;;;19.50;99.90;;;;;;4160765;28;20030;-70
2021/05/30 09:25:07;;;;;;;21.45;19.15;;;19.50;99.90;;;;;;4162856;28;20108;-70
2021/05/30 09:27:09;;;;;;;17.52;15.73;;;19.50;99.90;;;;;;4148755;28;20034;-70
2021/05/30 09:29:11;;;;;;;21.77;16.35;;;19.30;99.90;;;;;;4155437;28;20080;-70
2021/05/30 09:31:12;;;;;;;16.42;14.50;;;19.50;99.90;;;;;;4150606;28;20038;-68
2021/05/30 09:33:23;;;;;;;18.88;16.95;;;19.80;99.90;;;;;;4160810;28;20040;-70
2021/05/30 09:35:45;;;;;;;15.05;13.48;;;19.90;99.90;;;;;;4159174;28;20030;-69
2021/05/30 09:38:09;;;;;;;18.70;15.05;;;19.90;99.90;;;;;;4159063;28;20050;-71
2021/05/30 09:40:10;;;;;;;17.60;13.30;;;20.10;99.90;;;;;;4161807;28;20496;-70
2021/05/30 09:42:26;;;;;;;15.98;13.52;;;20.10;99.90;;;;;;4159701;28;20467;-70
2021/05/30 09:44:30;;;;;;;14.75;13.23;;;20.10;99.90;;;;;;4162475;28;20033;-70
2021/05/30 09:46:33;;;;;;;18.23;13.93;;;20.30;99.90;;;;;;4162257;28;20038;-71
2021/05/30 09:48:40;;;;;;;15.02;13.23;;;20.20;99.90;;;;;;4162471;28;20025;-70
2021/05/30 09:50:40;;;;;;;14.95;11.82;;;20.20;99.90;;;;;;4162534;28;20370;-70
2021/05/30 09:52:46;;;;;;;21.27;18.42;;;20.50;99.90;;;;;;4161245;28;20036;-71
2021/05/30 09:54:47;;;;;;;14.90;12.10;;;20.70;99.90;;;;;;4154257;28;20034;-70
2021/05/30 09:56:54;;;;;;;13.07;11.23;;;20.90;99.90;;;;;;4147225;28;20037;-70
2021/05/30 09:58:55;;;;;;;11.85;10.65;;;21.00;99.90;;;;;;4160651;28;20061;-70
2021/05/30 10:00:56;;;;;;;15.50;11.52;;;21.30;99.90;;;;;;4177785;28;20041;-71
2021/05/30 10:02:57;;;;;;;19.00;16.77;;;21.60;99.90;;;;;;4151406;28;20086;-70
2021/05/30 10:04:59;;;;;;;13.13;11.68;;;21.60;99.90;;;;;;4160834;28;20037;-71
2021/05/30 10:07:04;;;;;;;12.23;10.75;;;21.60;99.90;;;;;;4161116;28;20029;-70
2021/05/30 10:09:05;;;;;;;14.32;12.38;;;21.80;99.90;;;;;;4161084;28;20034;-70
2021/05/30 10:11:06;;;;;;;13.30;11.93;;;22.00;99.90;;;;;;4161051;28;20061;-72
2021/05/30 10:13:07;;;;;;;13.43;10.82;;;22.20;99.90;;;;;;4160902;28;20404;-70
2021/05/30 10:15:08;;;;;;;11.02;9.13;;;22.50;99.90;;;;;;4162022;28;20041;-70
2021/05/30 10:17:11;;;;;;;9.45;8.45;;;22.60;99.90;;;;;;4161890;28;20132;-70
2021/05/30 10:19:19;;;;;;;12.50;8.30;;;22.60;99.90;;;;;;4161814;28;20511;-70
2021/05/30 10:21:20;;;;;;;13.55;7.88;;;22.80;99.90;;;;;;4160825;28;20070;-70
2021/05/30 10:23:22;;;;;;;9.80;7.35;;;23.30;99.90;;;;;;4159343;28;20068;-70